createdAt,value
2023-03-23T15:59:41.480Z,95.75
2023-03-23T16:02:18.259Z,95.17
2023-03-23T16:04:48.090Z,98.15
2023-03-23T16:07:15.605Z,98.01
2023-03-23T16:09:44.462Z,95.84
2023-03-23T16:15:15.620Z,96.90
2023-03-23T16:17:43.671Z,95.86
2023-03-23T16:20:14.482Z,95.55
2023-03-23T16:22:42.112Z,97.24
2023-03-23T16:27:57.710Z,98.57
2023-03-23T16:30:27.217Z,99.47
2023-03-23T16:32:57.611Z,99.76
2023-03-23T16:35:27.004Z,99.13
2023-03-23T16:38:06.988Z,99.94
2023-03-23T16:40:59.766Z,100.00
2023-03-23T16:43:27.290Z,100.00
2023-03-23T16:45:57.685Z,100.00
2023-03-23T16:48:26.564Z,100.00
2023-03-23T16:53:54.068Z,98.96
2023-03-23T16:56:21.544Z,99.81
2023-03-23T16:58:48.966Z,100.00
2023-03-23T17:01:16.438Z,100.00
2023-03-23T17:03:44.091Z,100.00
2023-03-23T17:06:11.700Z,100.00
2023-03-23T17:08:39.167Z,100.00
2023-03-23T17:11:08.204Z,99.93
2023-03-23T17:13:35.736Z,99.78
2023-03-23T17:16:03.225Z,100.00
2023-03-23T17:18:31.435Z,100.00
2023-03-23T17:20:58.856Z,100.00
2023-03-23T17:23:26.541Z,100.00
2023-03-23T17:28:54.614Z,100.00
2023-03-23T17:31:22.076Z,100.00
2023-03-23T17:33:49.865Z,100.00
2023-03-23T17:36:17.493Z,100.00
2023-03-23T17:38:45.087Z,100.00
2023-03-23T17:44:12.019Z,100.00
2023-03-23T17:46:40.779Z,100.00
2023-03-23T17:49:08.216Z,100.00
2023-03-23T17:51:36.052Z,100.00
2023-03-23T17:54:03.682Z,100.00
2023-03-23T17:56:31.307Z,100.00
2023-03-23T17:58:58.725Z,100.00
2023-03-23T18:04:26.772Z,100.00
2023-03-23T18:06:55.464Z,100.00
2023-03-23T18:09:23.188Z,100.00
2023-03-23T18:11:50.640Z,100.00
2023-03-23T18:14:18.175Z,100.00
2023-03-23T18:16:45.620Z,100.00
2023-03-23T18:19:13.245Z,100.00
2023-03-23T18:21:43.820Z,100.00
2023-03-23T18:27:15.923Z,100.00
2023-03-23T18:29:43.394Z,100.00
2023-03-23T18:32:10.890Z,100.00
2023-03-23T18:34:41.509Z,100.00
2023-03-23T18:40:11.798Z,100.00
2023-03-23T18:42:39.426Z,100.00
2023-03-23T18:48:09.770Z,100.00
2023-03-23T18:50:37.223Z,100.00
2023-03-23T18:53:04.647Z,100.00
2023-03-23T18:55:33.398Z,100.00
2023-03-23T18:58:01.189Z,100.00
2023-03-23T19:00:29.470Z,100.00
2023-03-23T19:02:57.008Z,100.00
2023-03-23T19:05:24.563Z,99.90
2023-03-23T19:10:59.960Z,100.00
2023-03-23T19:13:27.982Z,100.00
2023-03-23T19:15:56.245Z,100.00
2023-03-23T19:18:23.746Z,100.00
2023-03-23T19:21:09.274Z,100.00
2023-03-23T19:23:40.682Z,100.00
2023-03-23T19:26:22.379Z,100.00
2023-03-23T19:34:21.665Z,100.00
2023-03-23T19:36:55.237Z,100.00
2023-03-23T19:39:30.817Z,100.00
2023-03-23T19:42:00.169Z,100.00
2023-03-23T19:47:29.817Z,100.00
2023-03-23T19:49:59.503Z,100.00
2023-03-23T19:52:27.946Z,99.48
2023-03-23T19:54:55.452Z,98.98
2023-03-23T19:57:24.427Z,98.91
2023-03-23T19:59:51.827Z,98.31
2023-03-23T20:05:18.015Z,97.93
2023-03-23T20:07:50.288Z,98.30
2023-03-23T20:10:19.413Z,98.13
2023-03-23T20:12:48.173Z,97.42
2023-03-23T20:18:18.601Z,97.07
2023-03-23T20:20:50.019Z,96.61
2023-03-23T20:23:19.083Z,97.28
2023-03-23T20:25:46.654Z,96.76
2023-03-23T20:28:16.675Z,97.08
2023-03-23T20:30:44.388Z,96.52
2023-03-23T20:33:11.882Z,96.86
2023-03-23T20:35:39.945Z,96.47
2023-03-23T20:38:07.555Z,96.74
2023-03-23T20:43:39.496Z,95.72
2023-03-23T20:46:08.177Z,95.60
2023-03-23T20:48:37.271Z,95.96
2023-03-23T20:51:07.862Z,95.29
2023-03-23T20:53:36.185Z,95.90
2023-03-23T20:56:06.915Z,95.77
2023-03-23T20:58:35.693Z,95.14
2023-03-23T21:01:06.490Z,95.35
2023-03-23T21:06:37.120Z,94.66
2023-03-23T21:09:06.035Z,94.18
2023-03-23T21:11:35.109Z,93.89
2023-03-23T21:14:02.869Z,93.63
2023-03-23T21:16:31.790Z,93.29
2023-03-23T21:18:59.384Z,93.44
2023-03-23T21:21:28.143Z,93.28
2023-03-23T21:26:44.399Z,92.23
2023-03-23T21:29:11.843Z,92.33
2023-03-23T21:31:40.653Z,92.22
2023-03-23T21:34:08.566Z,91.82
2023-03-23T21:36:36.281Z,91.74
2023-03-23T21:39:05.999Z,91.09
2023-03-23T21:41:41.965Z,92.25
2023-03-23T21:47:14.049Z,92.22
2023-03-23T21:49:41.879Z,92.03
2023-03-23T21:52:09.383Z,92.26
2023-03-23T21:54:36.895Z,91.73
2023-03-23T21:57:04.719Z,91.46
2023-03-23T21:59:32.234Z,91.43
2023-03-23T22:02:02.118Z,91.70
2023-03-23T22:07:39.786Z,91.38
2023-03-23T22:10:09.092Z,90.85
2023-03-23T22:12:37.450Z,91.65
2023-03-23T22:15:05.574Z,91.22
2023-03-23T22:17:33.077Z,90.56
2023-03-23T22:20:00.603Z,91.01
2023-03-23T22:25:28.185Z,90.58
2023-03-23T22:27:56.182Z,89.51
2023-03-23T22:30:24.406Z,89.65
2023-03-23T22:32:51.994Z,89.60
2023-03-23T22:38:17.913Z,88.23
2023-03-23T22:40:46.946Z,88.45
2023-03-23T22:43:14.563Z,88.16
2023-03-23T22:45:42.065Z,88.38
2023-03-23T22:48:09.583Z,87.86
2023-03-23T22:50:37.054Z,87.60
2023-03-23T22:53:04.531Z,88.38
2023-03-23T22:55:32.046Z,87.66
2023-03-23T22:58:01.093Z,87.12
2023-03-23T23:00:28.755Z,87.15
2023-03-23T23:02:56.252Z,87.61
2023-03-23T23:05:23.719Z,88.04
2023-03-23T23:07:51.297Z,86.60
2023-03-23T23:10:18.854Z,88.09
2023-03-23T23:12:47.541Z,89.19
2023-03-23T23:15:16.342Z,89.17
2023-03-23T23:17:43.950Z,90.41
2023-03-23T23:20:14.035Z,90.63
2023-03-23T23:22:43.176Z,91.14
2023-03-23T23:25:12.541Z,92.00
2023-03-23T23:27:40.045Z,92.89
2023-03-23T23:30:09.825Z,93.63
2023-03-23T23:32:38.846Z,93.18
2023-03-23T23:35:07.520Z,94.85
2023-03-23T23:40:24.105Z,97.25
2023-03-23T23:42:52.535Z,97.59
2023-03-23T23:45:20.612Z,98.18
2023-03-23T23:47:49.530Z,98.90
2023-03-23T23:50:17.240Z,99.92
2023-03-23T23:52:45.258Z,100.00
2023-03-23T23:58:01.774Z,100.00
